createdAt,value
2023-03-27T00:01:31.019Z,3.60
2023-03-27T00:03:59.311Z,3.10
2023-03-27T00:06:27.800Z,3.90
2023-03-27T00:08:55.974Z,3.40
2023-03-27T00:11:25.194Z,3.40
2023-03-27T00:13:55.107Z,3.70
2023-03-27T00:16:27.025Z,4.00
2023-03-27T00:18:56.660Z,3.60
2023-03-27T00:21:26.182Z,4.60
2023-03-27T00:23:56.918Z,3.70
2023-03-27T00:26:25.263Z,3.80
2023-03-27T00:28:53.680Z,3.70
2023-03-27T00:31:22.288Z,4.10
2023-03-27T00:33:52.682Z,4.10
2023-03-27T00:36:21.506Z,4.50
2023-03-27T00:38:53.381Z,4.30
2023-03-27T00:41:23.054Z,3.90
2023-03-27T00:43:54.644Z,4.30
2023-03-27T00:46:34.411Z,3.70
2023-03-27T00:49:08.919Z,3.80
2023-03-27T00:51:39.924Z,3.80
2023-03-27T00:54:09.949Z,3.70
2023-03-27T00:56:39.013Z,4.40
2023-03-27T00:59:16.438Z,3.80
2023-03-27T01:01:45.456Z,3.10
2023-03-27T01:04:14.179Z,3.10
2023-03-27T01:06:42.678Z,3.50
2023-03-27T01:09:20.644Z,4.60
2023-03-27T01:12:09.614Z,3.70
2023-03-27T01:14:38.573Z,4.00
2023-03-27T01:17:28.885Z,3.30
2023-03-27T01:20:23.156Z,3.50
2023-03-27T01:22:52.830Z,3.70
2023-03-27T01:25:40.189Z,3.70
2023-03-27T01:28:21.020Z,3.20
2023-03-27T01:31:08.572Z,3.20
2023-03-27T01:34:26.277Z,2.90
2023-03-27T01:37:13.533Z,3.40
2023-03-27T01:40:09.493Z,3.50
2023-03-27T01:42:49.389Z,3.50
2023-03-27T01:45:28.614Z,2.90
2023-03-27T01:48:12.205Z,3.00
2023-03-27T01:50:48.316Z,3.30
2023-03-27T01:53:27.257Z,2.90
2023-03-27T01:56:18.760Z,2.90
2023-03-27T01:58:50.209Z,2.40
2023-03-27T02:01:24.754Z,2.80
2023-03-27T02:03:58.048Z,3.60
2023-03-27T02:06:30.716Z,3.20
2023-03-27T02:09:05.404Z,3.30
2023-03-27T02:11:39.489Z,3.40
2023-03-27T02:14:18.569Z,3.00
2023-03-27T02:16:53.245Z,3.20
2023-03-27T02:19:37.178Z,2.80
2023-03-27T02:22:06.903Z,2.60
2023-03-27T02:24:45.363Z,2.60
2023-03-27T02:27:28.542Z,2.90
2023-03-27T02:30:17.579Z,2.90
2023-03-27T02:33:17.831Z,2.80
2023-03-27T02:36:21.288Z,4.10
2023-03-27T02:39:22.264Z,4.80
2023-03-27T02:42:08.999Z,3.10
2023-03-27T02:44:52.672Z,2.90
2023-03-27T02:47:41.223Z,4.40
2023-03-27T02:50:17.933Z,4.50
2023-03-27T02:52:52.349Z,3.90
2023-03-27T02:55:35.698Z,4.90
2023-03-27T02:58:13.504Z,4.00
2023-03-27T03:01:09.996Z,3.70
2023-03-27T03:04:00.346Z,3.30
2023-03-27T03:06:47.721Z,3.70
2023-03-27T03:09:19.212Z,3.60
2023-03-27T03:11:51.651Z,4.40
2023-03-27T03:14:24.614Z,3.50
2023-03-27T03:16:53.272Z,4.40
2023-03-27T03:19:24.249Z,4.10
2023-03-27T03:21:53.123Z,3.90
2023-03-27T03:24:22.494Z,3.40
2023-03-27T03:26:50.968Z,4.10
2023-03-27T03:29:19.464Z,3.80
2023-03-27T03:32:07.510Z,4.50
2023-03-27T03:34:36.906Z,4.70
2023-03-27T03:37:05.401Z,4.50
2023-03-27T03:39:34.091Z,4.10
2023-03-27T03:42:04.413Z,3.90
2023-03-27T03:44:34.738Z,4.40
2023-03-27T03:47:14.018Z,4.20
2023-03-27T03:49:43.033Z,4.90
2023-03-27T03:52:11.530Z,4.20
2023-03-27T03:54:40.532Z,4.50
2023-03-27T03:57:09.616Z,4.80
2023-03-27T03:59:39.723Z,4.70
2023-03-27T04:02:29.149Z,5.20
2023-03-27T04:05:08.812Z,4.70
2023-03-27T04:07:41.396Z,3.80
2023-03-27T04:10:22.623Z,4.30
2023-03-27T04:12:51.893Z,4.80
2023-03-27T04:15:31.780Z,4.90
2023-03-27T04:18:04.452Z,5.00
2023-03-27T04:20:34.947Z,5.40
2023-03-27T04:23:05.670Z,4.40
2023-03-27T04:25:40.470Z,4.90
2023-03-27T04:28:10.574Z,4.40
2023-03-27T04:30:50.704Z,5.50
2023-03-27T04:33:23.266Z,5.70
2023-03-27T04:36:20.849Z,5.60
2023-03-27T04:38:55.687Z,5.60
2023-03-27T04:41:24.736Z,5.60
2023-03-27T04:43:53.741Z,5.40
2023-03-27T04:46:23.442Z,4.80
2023-03-27T04:48:57.169Z,5.80
2023-03-27T04:51:48.401Z,5.00
2023-03-27T04:54:16.941Z,5.10
2023-03-27T04:56:46.991Z,5.10
2023-03-27T04:59:18.701Z,5.90
2023-03-27T05:01:52.746Z,4.80
2023-03-27T05:04:33.834Z,6.00
2023-03-27T05:07:15.795Z,6.20
2023-03-27T05:09:44.741Z,5.60
2023-03-27T05:12:13.293Z,6.20
2023-03-27T05:14:49.557Z,6.30
2023-03-27T05:17:43.507Z,6.10
2023-03-27T05:20:15.327Z,5.70
2023-03-27T05:22:44.592Z,5.50
2023-03-27T05:25:31.150Z,7.70
2023-03-27T05:28:01.025Z,6.60
2023-03-27T05:30:35.293Z,6.80
2023-03-27T05:33:24.666Z,6.30
2023-03-27T05:35:53.823Z,6.30
2023-03-27T05:38:23.032Z,7.10
2023-03-27T05:41:07.701Z,6.60
2023-03-27T05:43:38.725Z,7.20
2023-03-27T05:46:11.407Z,7.30
2023-03-27T05:48:40.193Z,7.20
2023-03-27T05:51:09.567Z,8.30
2023-03-27T05:53:41.438Z,8.80
2023-03-27T05:56:24.619Z,8.70
2023-03-27T05:58:55.872Z,8.70
2023-03-27T06:01:26.869Z,8.70
2023-03-27T06:03:57.512Z,8.70
2023-03-27T06:06:34.588Z,8.90
2023-03-27T06:09:05.848Z,8.20
2023-03-27T06:11:35.188Z,9.40
2023-03-27T06:14:04.351Z,8.10
2023-03-27T06:16:46.506Z,7.70
2023-03-27T06:19:34.694Z,9.80
2023-03-27T06:22:03.396Z,10.20
2023-03-27T06:24:31.688Z,10.00
2023-03-27T06:27:04.427Z,8.20
2023-03-27T06:29:33.943Z,12.10
2023-03-27T06:32:02.820Z,10.40
2023-03-27T06:34:35.957Z,10.70
2023-03-27T06:37:14.861Z,9.30
2023-03-27T06:39:44.546Z,15.60
2023-03-27T06:42:13.090Z,13.30
2023-03-27T06:44:53.760Z,10.60
2023-03-27T06:47:51.659Z,9.60
2023-03-27T06:50:35.485Z,9.80
2023-03-27T06:53:07.923Z,8.90
2023-03-27T06:55:45.745Z,8.90
2023-03-27T06:58:14.396Z,8.60
2023-03-27T07:00:42.849Z,8.80
2023-03-27T07:03:23.019Z,10.00
2023-03-27T07:06:07.644Z,10.70
2023-03-27T07:08:50.575Z,9.20
2023-03-27T07:11:19.706Z,9.70
2023-03-27T07:13:56.029Z,12.00
2023-03-27T07:16:27.455Z,9.00
2023-03-27T07:18:58.913Z,8.50
2023-03-27T07:21:29.999Z,7.40
2023-03-27T07:24:00.420Z,7.80
2023-03-27T07:26:34.537Z,8.40
2023-03-27T07:29:26.429Z,9.30
2023-03-27T07:32:00.520Z,8.50
2023-03-27T07:34:39.117Z,9.20
2023-03-27T07:37:07.380Z,9.70
2023-03-27T07:39:36.545Z,9.90
2023-03-27T07:42:04.960Z,11.80
2023-03-27T07:44:44.182Z,11.40
2023-03-27T07:47:12.934Z,12.20
2023-03-27T07:49:42.291Z,11.00
2023-03-27T07:52:16.566Z,12.50
2023-03-27T07:54:52.810Z,11.40
2023-03-27T07:57:24.645Z,12.10
2023-03-27T07:59:53.305Z,11.50
2023-03-27T08:02:50.434Z,11.20
2023-03-27T08:05:19.285Z,10.50
2023-03-27T08:07:54.816Z,12.60
2023-03-27T08:10:42.560Z,11.70
2023-03-27T08:13:12.859Z,12.90
2023-03-27T08:15:41.807Z,12.30
2023-03-27T08:18:20.459Z,12.30
2023-03-27T08:20:49.850Z,12.60
2023-03-27T08:23:18.249Z,11.80
2023-03-27T08:26:06.754Z,12.20
2023-03-27T08:28:44.174Z,12.60
2023-03-27T08:31:15.847Z,13.40
2023-03-27T08:33:45.297Z,12.40
2023-03-27T08:36:25.680Z,12.80
2023-03-27T08:38:55.531Z,12.90
2023-03-27T08:41:42.529Z,13.10
2023-03-27T08:44:21.078Z,14.40
2023-03-27T08:47:32.791Z,14.50
2023-03-27T08:50:47.040Z,15.40
2023-03-27T08:54:00.829Z,16.40
2023-03-27T08:56:31.274Z,16.20
2023-03-27T08:59:00.572Z,15.90
2023-03-27T09:01:41.798Z,16.50
2023-03-27T09:04:28.029Z,16.20
2023-03-27T09:07:07.410Z,17.80
2023-03-27T09:09:52.977Z,19.20
2023-03-27T09:13:13.337Z,19.20
2023-03-27T09:16:00.401Z,18.90
2023-03-27T09:18:54.282Z,21.60
2023-03-27T09:21:42.795Z,19.50
2023-03-27T09:24:28.438Z,20.60
2023-03-27T09:27:22.376Z,19.70
2023-03-27T09:30:11.966Z,20.60
2023-03-27T09:32:49.126Z,22.10
2023-03-27T09:35:22.235Z,20.70
2023-03-27T09:37:59.439Z,19.50
2023-03-27T09:40:43.063Z,19.60
2023-03-27T09:43:21.730Z,18.90
2023-03-27T09:45:54.415Z,18.60
2023-03-27T09:48:50.548Z,17.80
2023-03-27T09:51:51.528Z,18.20
2023-03-27T09:54:53.733Z,17.60
2023-03-27T09:57:34.009Z,16.10
2023-03-27T10:00:15.841Z,16.50
2023-03-27T10:02:48.600Z,16.10
2023-03-27T10:05:23.287Z,17.80
2023-03-27T10:07:55.136Z,19.80
2023-03-27T10:10:46.239Z,14.80
2023-03-27T10:13:37.501Z,16.00
2023-03-27T10:16:07.328Z,15.90
2023-03-27T10:18:46.420Z,14.80
2023-03-27T10:21:29.690Z,14.80
2023-03-27T10:24:06.860Z,14.50
2023-03-27T10:27:19.845Z,14.90
2023-03-27T10:30:30.990Z,14.30
2023-03-27T10:33:12.172Z,15.00
2023-03-27T10:35:49.697Z,15.60
2023-03-27T10:38:34.699Z,14.40
2023-03-27T10:41:28.027Z,14.70
2023-03-27T10:43:59.427Z,15.30
2023-03-27T10:46:31.357Z,15.50
2023-03-27T10:49:06.460Z,14.70
2023-03-27T10:52:02.508Z,14.20
2023-03-27T10:54:44.617Z,13.80
2023-03-27T10:57:31.864Z,15.30
2023-03-27T11:00:13.882Z,13.90
2023-03-27T11:03:15.047Z,14.80
2023-03-27T11:05:49.011Z,13.70
2023-03-27T11:08:53.277Z,11.80
2023-03-27T11:11:37.143Z,12.60
2023-03-27T11:14:17.417Z,12.50
2023-03-27T11:16:50.549Z,12.10
2023-03-27T11:19:31.698Z,12.30
2023-03-27T11:22:38.527Z,11.60
2023-03-27T11:25:14.245Z,9.90
2023-03-27T11:28:03.973Z,10.70
2023-03-27T11:30:38.581Z,11.70
2023-03-27T11:33:37.757Z,10.70
2023-03-27T11:36:18.407Z,9.60
2023-03-27T11:39:07.164Z,10.50
2023-03-27T11:41:36.126Z,10.00
2023-03-27T11:44:04.962Z,8.70
2023-03-27T11:46:54.883Z,9.20
2023-03-27T11:49:54.510Z,8.70
2023-03-27T11:53:09.638Z,8.20
2023-03-27T11:56:18.488Z,7.50
2023-03-27T11:58:58.140Z,8.20
2023-03-27T12:01:35.789Z,7.80
2023-03-27T12:04:07.154Z,8.10
2023-03-27T12:07:12.354Z,7.40
2023-03-27T12:09:59.938Z,6.40
2023-03-27T12:12:52.183Z,6.90
2023-03-27T12:15:46.837Z,7.00
2023-03-27T12:18:36.465Z,6.30
2023-03-27T12:21:17.774Z,6.20
2023-03-27T12:24:29.243Z,6.10
2023-03-27T12:27:29.236Z,5.90
2023-03-27T12:30:19.912Z,5.70
2023-03-27T12:33:16.569Z,5.70
2023-03-27T12:35:49.070Z,6.20
2023-03-27T12:38:27.294Z,6.50
2023-03-27T12:41:06.799Z,6.80
2023-03-27T12:44:01.102Z,5.70
2023-03-27T12:46:40.181Z,6.20
2023-03-27T12:49:10.884Z,5.70
2023-03-27T12:51:54.179Z,5.50
2023-03-27T12:54:42.897Z,6.50
2023-03-27T12:57:49.789Z,5.00
2023-03-27T13:00:23.959Z,6.30
2023-03-27T13:03:13.934Z,5.30
2023-03-27T13:06:12.851Z,5.40
2023-03-27T13:09:02.906Z,5.60
2023-03-27T13:11:53.884Z,6.20
2023-03-27T13:14:50.391Z,5.30
2023-03-27T13:17:29.719Z,5.00
2023-03-27T13:20:17.628Z,5.80
2023-03-27T13:23:29.201Z,5.90
2023-03-27T13:26:07.021Z,5.80
2023-03-27T13:28:42.494Z,6.10
2023-03-27T13:31:33.629Z,5.80
2023-03-27T13:34:28.709Z,5.00
2023-03-27T13:37:36.869Z,4.60
2023-03-27T13:40:33.647Z,5.50
2023-03-27T13:43:35.718Z,5.90
2023-03-27T13:46:16.424Z,5.60
2023-03-27T13:49:28.146Z,5.50
2023-03-27T13:52:46.936Z,4.60
2023-03-27T13:55:19.341Z,4.40
2023-03-27T13:58:35.253Z,4.80
2023-03-27T14:01:52.368Z,4.30
2023-03-27T14:04:50.647Z,5.00
2023-03-27T14:07:42.031Z,3.40
2023-03-27T14:10:54.983Z,3.90
2023-03-27T14:13:38.161Z,3.60
2023-03-27T14:16:35.745Z,4.00
2023-03-27T14:19:27.003Z,3.80
2023-03-27T14:22:05.701Z,4.60
2023-03-27T14:24:47.894Z,4.20
2023-03-27T14:27:35.469Z,4.00
2023-03-27T14:30:16.798Z,4.00
2023-03-27T14:32:50.177Z,3.80
2023-03-27T14:35:30.932Z,4.80
2023-03-27T14:38:25.044Z,3.80
2023-03-27T14:40:59.033Z,4.10
2023-03-27T14:43:47.873Z,4.60
2023-03-27T14:46:18.115Z,3.70
2023-03-27T14:48:51.496Z,4.20
2023-03-27T14:51:34.180Z,4.20
2023-03-27T14:54:08.708Z,3.90
2023-03-27T14:59:40.443Z,4.80
2023-03-27T15:02:26.822Z,6.30
2023-03-27T15:05:03.176Z,4.00
2023-03-27T15:07:38.398Z,4.20
2023-03-27T15:10:22.587Z,3.60
2023-03-27T15:13:11.517Z,3.60
2023-03-27T15:15:50.359Z,3.40
2023-03-27T15:18:44.803Z,4.60
2023-03-27T15:21:22.427Z,3.60
2023-03-27T15:24:06.105Z,4.40
2023-03-27T15:26:36.790Z,3.90
2023-03-27T15:29:48.651Z,3.90
2023-03-27T15:32:22.408Z,4.00
2023-03-27T15:34:58.752Z,4.40
2023-03-27T15:37:29.219Z,3.40
2023-03-27T15:40:17.314Z,3.40
2023-03-27T15:43:08.580Z,3.40
2023-03-27T15:45:46.799Z,3.10
2023-03-27T15:48:36.096Z,4.30
2023-03-27T15:51:06.434Z,3.60
2023-03-27T15:53:46.153Z,4.40
2023-03-27T15:56:26.419Z,3.80
2023-03-27T15:59:02.135Z,4.70
2023-03-27T16:04:33.919Z,4.00
2023-03-27T16:07:12.787Z,3.80
2023-03-27T16:10:09.999Z,3.50
2023-03-27T16:12:41.754Z,4.20
2023-03-27T16:15:39.118Z,2.90
2023-03-27T16:18:30.144Z,2.70
2023-03-27T16:21:11.247Z,4.20
2023-03-27T16:23:40.983Z,3.70
2023-03-27T16:26:15.701Z,2.80
2023-03-27T16:28:44.654Z,3.30
2023-03-27T16:31:19.789Z,3.80
2023-03-27T16:33:48.198Z,3.50
2023-03-27T16:36:30.269Z,3.60
2023-03-27T16:38:59.079Z,3.50
2023-03-27T16:41:30.128Z,2.80
2023-03-27T16:43:58.585Z,3.50
2023-03-27T16:46:31.505Z,3.10
2023-03-27T16:49:04.967Z,3.00
2023-03-27T16:51:35.572Z,5.30
2023-03-27T16:54:06.536Z,3.30
2023-03-27T16:56:37.349Z,4.30
2023-03-27T16:59:09.357Z,3.30
2023-03-27T17:01:40.084Z,3.60
2023-03-27T17:04:08.712Z,4.70
2023-03-27T17:06:38.491Z,3.30
2023-03-27T17:09:11.515Z,2.70
2023-03-27T17:11:40.731Z,2.20
2023-03-27T17:14:09.043Z,3.20
2023-03-27T17:16:37.314Z,2.80
2023-03-27T17:19:09.008Z,3.20
2023-03-27T17:21:37.960Z,2.80
2023-03-27T17:24:09.557Z,3.50
2023-03-27T17:26:39.486Z,2.90
2023-03-27T17:29:13.040Z,4.40
2023-03-27T17:31:41.513Z,4.10
2023-03-27T17:34:10.098Z,3.30
2023-03-27T17:36:47.071Z,3.00
2023-03-27T17:39:18.581Z,2.50
2023-03-27T17:41:46.904Z,3.40
2023-03-27T17:44:15.521Z,4.70
2023-03-27T17:46:46.762Z,3.10
2023-03-27T17:49:15.166Z,2.70
2023-03-27T17:51:43.597Z,3.10
2023-03-27T17:54:11.856Z,4.10
2023-03-27T17:56:46.775Z,3.20
2023-03-27T17:59:15.586Z,2.80
2023-03-27T18:01:47.883Z,3.40
2023-03-27T18:04:17.525Z,3.60
2023-03-27T18:06:47.122Z,2.80
2023-03-27T18:09:17.606Z,4.60
2023-03-27T18:11:47.443Z,3.50
2023-03-27T18:14:15.686Z,3.50
2023-03-27T18:16:44.848Z,3.70
2023-03-27T18:19:13.643Z,3.60
2023-03-27T18:21:42.546Z,3.30
2023-03-27T18:24:11.337Z,3.20
2023-03-27T18:26:39.903Z,4.40
2023-03-27T18:29:08.410Z,3.60
2023-03-27T18:31:37.243Z,4.20
2023-03-27T18:34:06.289Z,3.40
2023-03-27T18:36:34.758Z,4.40
2023-03-27T18:39:04.578Z,4.20
2023-03-27T18:41:35.934Z,4.50
2023-03-27T18:44:04.297Z,3.60
2023-03-27T18:46:32.554Z,3.50
2023-03-27T18:49:10.313Z,5.10
2023-03-27T18:51:47.610Z,4.90
2023-03-27T18:54:15.917Z,4.70
2023-03-27T18:56:44.224Z,4.90
2023-03-27T18:59:12.549Z,4.70
2023-03-27T19:01:40.841Z,3.80
2023-03-27T19:04:14.544Z,3.70
2023-03-27T19:06:46.715Z,3.70
2023-03-27T19:09:15.825Z,5.20
2023-03-27T19:11:44.429Z,4.20
2023-03-27T19:14:31.537Z,4.50
2023-03-27T19:17:20.155Z,4.20
2023-03-27T19:20:09.172Z,4.60
2023-03-27T19:23:05.579Z,5.30
2023-03-27T19:25:38.594Z,5.60
2023-03-27T19:28:07.253Z,4.60
2023-03-27T19:30:35.602Z,4.20
2023-03-27T19:33:04.090Z,5.20
2023-03-27T19:35:32.699Z,4.60
2023-03-27T19:38:01.796Z,5.10
2023-03-27T19:40:30.428Z,4.90
2023-03-27T19:42:58.662Z,4.30
2023-03-27T19:45:26.886Z,5.70
2023-03-27T19:47:56.509Z,5.70
2023-03-27T19:50:24.867Z,5.50
2023-03-27T19:53:08.504Z,4.80
2023-03-27T19:55:37.965Z,5.70
2023-03-27T19:58:06.983Z,4.60
2023-03-27T20:00:38.517Z,4.00
2023-03-27T20:03:10.605Z,3.90
2023-03-27T20:05:46.415Z,3.40
2023-03-27T20:08:15.954Z,4.30
2023-03-27T20:10:45.275Z,4.30
2023-03-27T20:13:19.935Z,4.50
2023-03-27T20:15:53.266Z,4.30
2023-03-27T20:18:22.452Z,4.90
2023-03-27T20:20:50.785Z,4.80
2023-03-27T20:23:20.459Z,4.30
2023-03-27T20:25:51.762Z,5.00
2023-03-27T20:28:20.516Z,5.10
2023-03-27T20:47:53.176Z,4.50
2023-03-27T20:50:24.007Z,4.30
2023-03-27T20:52:52.241Z,3.40
2023-03-27T20:55:32.826Z,4.30
2023-03-27T20:58:03.206Z,3.70
2023-03-27T21:00:31.578Z,4.40
2023-03-27T21:03:00.085Z,4.00
2023-03-27T21:05:30.835Z,4.50
2023-03-27T21:08:00.251Z,3.90
2023-03-27T21:10:29.001Z,4.40
2023-03-27T21:12:57.729Z,4.80
2023-03-27T21:15:27.489Z,5.40
2023-03-27T21:17:55.864Z,4.70
2023-03-27T21:20:26.885Z,4.40
2023-03-27T21:22:55.534Z,5.30
2023-03-27T21:25:23.796Z,6.20
2023-03-27T21:27:57.929Z,5.10
2023-03-27T21:30:47.354Z,6.10
2023-03-27T21:33:16.229Z,6.60
2023-03-27T21:35:48.278Z,4.80
2023-03-27T21:38:18.147Z,4.20
2023-03-27T21:40:47.530Z,4.80
2023-03-27T21:43:16.720Z,4.90
2023-03-27T21:45:46.954Z,5.20
2023-03-27T21:48:16.357Z,5.60
2023-03-27T21:50:46.854Z,5.20
2023-03-27T21:53:17.047Z,6.50
2023-03-27T21:55:47.146Z,6.80
2023-03-27T21:58:15.600Z,6.10
2023-03-27T22:00:47.672Z,7.60
2023-03-27T22:03:17.606Z,7.40
2023-03-27T22:05:54.326Z,6.80
2023-03-27T22:08:29.616Z,9.00
2023-03-27T22:10:59.716Z,9.00
2023-03-27T22:13:28.031Z,8.10
2023-03-27T22:15:57.201Z,8.60
2023-03-27T22:18:25.695Z,10.10
2023-03-27T22:20:56.695Z,9.00
2023-03-27T22:23:25.036Z,10.00
2023-03-27T22:25:54.578Z,9.50
2023-03-27T22:28:22.873Z,10.00
2023-03-27T22:30:51.209Z,9.60
2023-03-27T22:33:20.099Z,8.90
2023-03-27T22:35:49.760Z,9.60
2023-03-27T22:38:21.643Z,10.10
2023-03-27T22:40:49.857Z,10.20
2023-03-27T22:43:22.623Z,12.10
2023-03-27T22:45:52.650Z,10.40
2023-03-27T22:48:21.430Z,10.40
2023-03-27T22:50:55.064Z,10.40
2023-03-27T22:53:25.761Z,9.50
2023-03-27T22:55:56.111Z,11.30
2023-03-27T22:58:25.951Z,10.70
2023-03-27T23:00:55.582Z,9.90
2023-03-27T23:03:25.839Z,10.30
2023-03-27T23:05:54.873Z,8.20
2023-03-27T23:08:27.349Z,7.10
2023-03-27T23:11:04.388Z,6.70
2023-03-27T23:13:35.008Z,6.90
2023-03-27T23:16:03.324Z,7.30
2023-03-27T23:18:31.783Z,6.60
2023-03-27T23:21:09.686Z,6.80
2023-03-27T23:23:40.762Z,7.10
2023-03-27T23:26:10.009Z,6.60
2023-03-27T23:28:41.055Z,6.30
2023-03-27T23:31:15.723Z,6.30
2023-03-27T23:33:47.684Z,5.40
2023-03-27T23:36:24.237Z,5.70
2023-03-27T23:38:53.872Z,6.00
2023-03-27T23:41:23.071Z,6.10
2023-03-27T23:43:51.592Z,5.90
2023-03-27T23:46:19.964Z,6.20
2023-03-27T23:48:48.358Z,7.10
2023-03-27T23:51:17.453Z,7.30
2023-03-27T23:53:45.808Z,6.90
2023-03-27T23:56:14.039Z,6.60
2023-03-27T23:58:42.290Z,7.60
